Time;durP1;ratioP1;P1;durP2;ratioP2;P2;SDS_P1;SDS_P2;PMS_P1;PMS_P2;Temp;Humidity;BMP_temperature;BMP_pressure;BME280_temperature;BME280_humidity;BME280_pressure;Samples;Min_cycle;Max_cycle;Signal;HPM_P1;HPM_P2
2023/08/28 00:00:50;;;;;;;15.43;10.82;;;640.30;2432.00;;;;;;5075369;28;20105;-72
2023/08/28 00:03:16;;;;;;;17.15;10.90;;;640.30;2432.00;;;;;;5075775;28;20032;-73
2023/08/28 00:05:42;;;;;;;13.57;10.48;;;640.30;2432.00;;;;;;5073265;28;20036;-71
2023/08/28 00:08:08;;;;;;;15.80;9.30;;;640.30;2432.00;;;;;;5072836;28;20017;-72
2023/08/28 00:10:33;;;;;;;18.08;10.10;;;640.40;2432.00;;;;;;5071761;28;20101;-72
2023/08/28 00:12:59;;;;;;;15.10;10.55;;;640.40;2432.00;;;;;;5067082;28;20055;-71
2023/08/28 00:15:25;;;;;;;17.05;10.00;;;640.30;2432.00;;;;;;5064031;28;20104;-71
2023/08/28 00:17:50;;;;;;;16.38;10.43;;;640.20;2432.00;;;;;;5065841;28;20025;-73
2023/08/28 00:20:16;;;;;;;15.30;9.75;;;640.20;2432.00;;;;;;5060259;28;20614;-71
2023/08/28 00:22:42;;;;;;;16.40;10.45;;;640.10;2432.00;;;;;;5064601;28;20420;-75
2023/08/28 00:25:08;;;;;;;20.75;11.38;;;640.10;2432.00;;;;;;5068664;28;20544;-72
2023/08/28 00:27:35;;;;;;;19.75;9.85;;;640.00;2432.00;;;;;;5062188;28;20028;-71
2023/08/28 00:30:01;;;;;;;15.95;9.60;;;615.30;2432.00;;;;;;5064072;28;20025;-71
2023/08/28 00:32:27;;;;;;;15.02;10.07;;;640.00;2432.00;;;;;;5061775;28;20028;-72
2023/08/28 00:34:54;;;;;;;15.57;10.82;;;640.00;2432.00;;;;;;5065891;28;20133;-71
2023/08/28 00:37:20;;;;;;;19.58;10.38;;;615.30;2432.00;;;;;;5064591;28;20013;-71
2023/08/28 00:39:46;;;;;;;14.73;9.98;;;615.30;2432.00;;;;;;5063421;28;20396;-72
2023/08/28 00:42:12;;;;;;;20.42;10.43;;;615.20;2432.00;;;;;;5063307;28;20021;-72
2023/08/28 00:44:38;;;;;;;15.57;10.45;;;615.20;2432.00;;;;;;5062262;28;20484;-71
2023/08/28 00:47:06;;;;;;;14.73;10.45;;;615.20;2432.00;;;;;;5058966;28;20059;-71
2023/08/28 00:49:32;;;;;;;16.13;10.23;;;615.20;2432.00;;;;;;5063207;28;20091;-72
2023/08/28 00:51:58;;;;;;;16.52;10.10;;;615.30;2432.00;;;;;;5057818;28;20060;-74
2023/08/28 00:54:24;;;;;;;19.10;10.50;;;615.30;2432.00;;;;;;5066959;28;20031;-72
2023/08/28 00:56:53;;;;;;;18.70;10.50;;;615.30;2432.00;;;;;;5064621;28;20032;-71
2023/08/28 00:59:18;;;;;;;18.30;10.40;;;615.30;2432.00;;;;;;5065293;28;20021;-71
2023/08/28 01:01:44;;;;;;;14.82;10.02;;;615.30;2432.00;;;;;;5066372;28;20036;-72
2023/08/28 01:04:10;;;;;;;13.10;9.70;;;615.30;2432.00;;;;;;5065297;28;20500;-71
2023/08/28 01:06:38;;;;;;;19.70;10.75;;;615.30;2432.00;;;;;;5068891;28;20067;-71
2023/08/28 01:09:20;;;;;;;15.57;10.35;;;640.00;2432.00;;;;;;5067689;28;20046;-72
2023/08/28 01:12:19;;;;;;;12.27;9.55;;;640.00;2432.00;;;;;;5068605;28;20060;-71
2023/08/28 01:15:00;;;;;;;12.25;9.40;;;640.00;2432.00;;;;;;5059167;28;20048;-72
2023/08/28 01:17:28;;;;;;;16.38;9.63;;;640.20;2432.00;;;;;;5066140;28;20021;-71
2023/08/28 01:19:55;;;;;;;14.00;9.15;;;640.10;2432.00;;;;;;5060662;28;20041;-72
2023/08/28 01:22:27;;;;;;;16.05;10.82;;;640.20;2432.00;;;;;;5058499;28;20028;-71
2023/08/28 01:25:05;;;;;;;19.70;10.73;;;640.20;2432.00;;;;;;5068671;28;20028;-72
2023/08/28 01:27:32;;;;;;;15.50;10.98;;;640.30;2432.00;;;;;;5064844;28;20028;-72
2023/08/28 01:30:13;;;;;;;14.18;10.80;;;640.40;2432.00;;;;;;5057175;28;20028;-73
2023/08/28 01:32:41;;;;;;;17.98;9.00;;;640.40;2432.00;;;;;;5067668;28;20020;-71
2023/08/28 01:35:24;;;;;;;17.85;9.65;;;640.40;2432.00;;;;;;5061672;28;20469;-74
2023/08/28 01:38:23;;;;;;;14.38;10.00;;;640.30;2432.00;;;;;;5064666;28;20021;-71
2023/08/28 01:40:52;;;;;;;13.82;9.27;;;640.20;2432.00;;;;;;5058792;28;20029;-72
2023/08/28 01:43:24;;;;;;;14.68;10.13;;;640.00;2432.00;;;;;;5067217;28;20024;-71
2023/08/28 01:45:51;;;;;;;15.48;9.85;;;615.30;2432.00;;;;;;5070981;28;20531;-73
2023/08/28 01:48:17;;;;;;;13.05;10.32;;;615.20;2432.00;;;;;;5060676;28;20520;-72
2023/08/28 01:50:42;;;;;;;16.08;10.40;;;615.20;2432.00;;;;;;5058268;28;20056;-73
2023/08/28 01:53:08;;;;;;;16.38;9.93;;;615.20;2432.00;;;;;;5060279;28;20088;-73
2023/08/28 01:55:45;;;;;;;14.38;10.07;;;615.20;2432.00;;;;;;5061691;28;20024;-71
2023/08/28 01:58:12;;;;;;;17.73;10.93;;;615.20;2432.00;;;;;;5058955;28;20519;-72
2023/08/28 02:00:38;;;;;;;13.35;9.85;;;615.10;2432.00;;;;;;5060512;28;20048;-71
2023/08/28 02:03:09;;;;;;;15.32;10.13;;;614.90;2432.00;;;;;;5063953;28;20055;-71
2023/08/28 02:05:35;;;;;;;15.30;10.02;;;615.00;2432.00;;;;;;5059970;28;20115;-72
2023/08/28 02:08:00;;;;;;;16.40;10.75;;;614.90;2432.00;;;;;;5064495;28;20044;-73
2023/08/28 02:10:26;;;;;;;19.70;10.45;;;614.90;2432.00;;;;;;5063023;28;20476;-71
2023/08/28 02:12:52;;;;;;;15.75;9.32;;;614.90;2432.00;;;;;;5059299;28;20025;-72
2023/08/28 02:15:17;;;;;;;14.38;10.15;;;614.90;2432.00;;;;;;5060777;28;20385;-71
2023/08/28 02:17:43;;;;;;;12.15;9.90;;;614.90;2432.00;;;;;;5065585;28;20031;-73
2023/08/28 02:20:09;;;;;;;19.15;10.63;;;614.90;2432.00;;;;;;5057822;28;20049;-72
2023/08/28 02:22:35;;;;;;;16.88;10.65;;;614.90;2432.00;;;;;;5063768;28;20151;-71
2023/08/28 02:25:01;;;;;;;14.88;9.90;;;614.90;2432.00;;;;;;5064267;28;20020;-71
2023/08/28 02:27:27;;;;;;;12.93;10.00;;;614.80;2432.00;;;;;;5063880;28;20143;-72
2023/08/28 02:29:53;;;;;;;14.45;9.68;;;614.80;2432.00;;;;;;5066257;28;20103;-71
2023/08/28 02:32:19;;;;;;;15.90;9.13;;;614.70;2432.00;;;;;;5062198;28;20020;-71
2023/08/28 02:34:44;;;;;;;17.52;10.48;;;614.70;2432.00;;;;;;5061683;28;20021;-71
2023/08/28 02:37:10;;;;;;;14.88;9.07;;;614.70;2432.00;;;;;;5063973;28;20025;-72
2023/08/28 02:39:36;;;;;;;14.57;9.63;;;614.70;2432.00;;;;;;5057416;28;20692;-73
2023/08/28 02:42:02;;;;;;;15.07;9.38;;;614.60;2432.00;;;;;;5062892;28;20039;-72
2023/08/28 02:44:28;;;;;;;15.63;9.15;;;614.60;2432.00;;;;;;5063826;28;20393;-71
2023/08/28 02:46:53;;;;;;;14.70;9.73;;;614.60;2432.00;;;;;;5064937;28;20024;-72
2023/08/28 02:49:19;;;;;;;16.70;9.63;;;614.60;2432.00;;;;;;5059503;28;21080;-73
2023/08/28 02:51:45;;;;;;;17.85;9.48;;;614.70;2432.00;;;;;;5064799;28;20394;-72
2023/08/28 02:54:10;;;;;;;16.20;10.48;;;614.80;2432.00;;;;;;5063000;28;20039;-73
2023/08/28 02:56:40;;;;;;;14.18;10.05;;;614.90;2432.00;;;;;;5066077;28;20029;-73
2023/08/28 02:59:06;;;;;;;18.77;9.02;;;615.10;2432.00;;;;;;5063539;28;20068;-73
2023/08/28 03:01:35;;;;;;;18.10;9.32;;;615.20;2432.00;;;;;;5059835;28;20028;-72
2023/08/28 03:04:06;;;;;;;13.50;9.95;;;615.10;2432.00;;;;;;5059500;28;20381;-74
2023/08/28 03:06:39;;;;;;;16.02;9.80;;;615.00;2432.00;;;;;;5059884;28;20071;-78
2023/08/28 03:09:07;;;;;;;15.38;9.82;;;615.00;2432.00;;;;;;5059652;28;20016;-72
2023/08/28 03:11:34;;;;;;;14.23;9.77;;;614.90;2432.00;;;;;;5066756;28;20029;-71
2023/08/28 03:14:00;;;;;;;16.27;9.10;;;614.80;2432.00;;;;;;5062753;28;20013;-73
2023/08/28 03:16:25;;;;;;;24.02;10.13;;;614.70;2432.00;;;;;;5062040;28;20425;-72
2023/08/28 03:18:51;;;;;;;19.13;10.07;;;614.70;2432.00;;;;;;5057983;28;20073;-72
2023/08/28 03:21:17;;;;;;;14.63;9.10;;;614.60;2432.00;;;;;;5056208;28;20025;-71
2023/08/28 03:23:42;;;;;;;19.55;10.27;;;614.50;2432.00;;;;;;5063984;28;20453;-72
2023/08/28 03:26:08;;;;;;;17.38;10.52;;;614.50;2432.00;;;;;;5062922;28;20024;-71
2023/08/28 03:28:34;;;;;;;13.85;9.80;;;614.40;2432.00;;;;;;5063065;28;20211;-72
2023/08/28 03:31:01;;;;;;;17.50;10.55;;;589.70;2432.00;;;;;;5061601;28;20040;-72
2023/08/28 03:33:27;;;;;;;18.65;9.35;;;589.70;2432.00;;;;;;5064921;28;20378;-72
2023/08/28 03:35:53;;;;;;;23.20;10.95;;;589.70;2432.00;;;;;;5059277;28;20017;-72
2023/08/28 03:38:19;;;;;;;15.40;10.38;;;589.70;2432.00;;;;;;5061434;28;20013;-72
2023/08/28 03:40:46;;;;;;;20.05;10.35;;;589.70;2432.00;;;;;;5063010;28;20488;-72
2023/08/28 03:43:12;;;;;;;16.35;9.52;;;589.70;2432.00;;;;;;5061626;28;20028;-72
2023/08/28 03:45:39;;;;;;;15.27;10.13;;;614.50;2432.00;;;;;;5058145;28;20090;-72
2023/08/28 03:48:05;;;;;;;17.23;9.68;;;614.50;2432.00;;;;;;5062990;28;20067;-73
2023/08/28 03:50:31;;;;;;;22.92;11.25;;;589.70;2432.00;;;;;;5063832;28;20513;-74
2023/08/28 03:52:57;;;;;;;14.63;9.23;;;589.70;2432.00;;;;;;5065864;28;20024;-72
2023/08/28 03:55:24;;;;;;;17.65;9.75;;;614.40;2432.00;;;;;;5063882;28;20025;-72
2023/08/28 03:57:50;;;;;;;14.15;9.88;;;614.40;2432.00;;;;;;5059597;28;20021;-72
2023/08/28 04:00:18;;;;;;;15.32;9.30;;;614.50;2432.00;;;;;;5059508;28;20536;-72
2023/08/28 04:02:46;;;;;;;19.35;9.68;;;614.40;2432.00;;;;;;5063938;28;20053;-72
2023/08/28 04:05:11;;;;;;;19.63;9.27;;;614.50;2432.00;;;;;;5065002;28;20120;-72
2023/08/28 04:07:37;;;;;;;18.67;9.25;;;614.50;2432.00;;;;;;5061212;28;20108;-73
2023/08/28 04:10:03;;;;;;;17.98;9.57;;;614.50;2432.00;;;;;;5056642;28;20036;-72
2023/08/28 04:12:29;;;;;;;17.23;9.80;;;614.50;2432.00;;;;;;5067050;28;20053;-71
2023/08/28 04:14:55;;;;;;;17.25;9.55;;;614.50;2432.00;;;;;;5058873;28;20481;-72
2023/08/28 04:17:20;;;;;;;13.15;8.68;;;614.50;2432.00;;;;;;5070721;28;20385;-71
2023/08/28 04:19:51;;;;;;;16.65;9.45;;;614.50;2432.00;;;;;;5055200;28;20056;-72
2023/08/28 04:22:19;;;;;;;16.83;8.85;;;614.50;2432.00;;;;;;5067480;28;20023;-71
2023/08/28 04:24:46;;;;;;;16.58;8.93;;;614.50;2432.00;;;;;;5061666;28;20036;-72
2023/08/28 04:27:12;;;;;;;18.25;9.45;;;614.50;2432.00;;;;;;5063725;28;20095;-72
2023/08/28 04:29:38;;;;;;;13.25;7.65;;;614.60;2432.00;;;;;;5062514;28;20075;-72
2023/08/28 04:32:04;;;;;;;14.75;8.68;;;614.60;2432.00;;;;;;5060651;28;20025;-71
2023/08/28 04:34:30;;;;;;;17.85;8.15;;;614.70;2432.00;;;;;;5062034;28;20162;-72
2023/08/28 04:36:56;;;;;;;10.43;7.60;;;614.70;2432.00;;;;;;5058642;28;20547;-72
2023/08/28 04:39:23;;;;;;;12.55;6.85;;;614.80;2432.00;;;;;;5062855;28;20039;-72
2023/08/28 04:41:49;;;;;;;15.15;7.25;;;614.80;2432.00;;;;;;5065087;28;20013;-72
2023/08/28 04:44:15;;;;;;;15.60;7.25;;;614.90;2432.00;;;;;;5062130;28;20020;-71
2023/08/28 04:46:41;;;;;;;20.45;7.57;;;615.00;2432.00;;;;;;5059637;28;20043;-71
2023/08/28 04:49:07;;;;;;;20.25;6.93;;;615.10;2432.00;;;;;;5057680;28;20049;-72
2023/08/28 04:51:32;;;;;;;15.70;7.10;;;615.20;2432.00;;;;;;5065521;28;20036;-71
2023/08/28 04:53:58;;;;;;;14.23;7.35;;;615.30;2432.00;;;;;;5065703;28;20021;-71
2023/08/28 04:56:24;;;;;;;15.55;7.18;;;615.30;2432.00;;;;;;5066009;28;20536;-72
2023/08/28 04:58:49;;;;;;;19.77;6.28;;;640.00;2432.00;;;;;;5062772;28;20094;-71
2023/08/28 05:01:15;;;;;;;13.65;6.60;;;640.00;2432.00;;;;;;5057919;28;20020;-71
2023/08/28 05:03:41;;;;;;;13.65;6.07;;;640.10;2432.00;;;;;;5065433;28;20042;-70
2023/08/28 05:06:06;;;;;;;10.52;5.72;;;640.10;2432.00;;;;;;5067816;28;20106;-72
2023/08/28 05:08:32;;;;;;;17.48;7.30;;;640.30;2432.00;;;;;;5070812;28;20465;-74
2023/08/28 05:11:00;;;;;;;14.70;5.53;;;640.50;2432.00;;;;;;5062445;28;20055;-70
2023/08/28 05:13:25;;;;;;;15.82;6.07;;;640.60;2432.00;;;;;;5062423;28;20359;-70
2023/08/28 05:15:51;;;;;;;12.57;6.07;;;640.70;2432.00;;;;;;5066595;28;20090;-71
2023/08/28 05:18:17;;;;;;;9.63;6.22;;;640.90;2432.00;;;;;;5070563;28;20025;-71
2023/08/28 05:20:42;;;;;;;12.63;5.85;;;665.60;2432.00;;;;;;5068673;28;20029;-71
2023/08/28 05:23:08;;;;;;;12.40;6.15;;;665.70;2432.00;;;;;;5069304;28;20040;-71
2023/08/28 05:25:34;;;;;;;12.40;6.50;;;665.70;2432.00;;;;;;5066951;28;20163;-72
2023/08/28 05:28:00;;;;;;;13.80;6.45;;;665.90;2432.00;;;;;;5065649;28;20047;-71
2023/08/28 05:30:25;;;;;;;11.68;6.03;;;666.00;2432.00;;;;;;5057865;28;20029;-72
2023/08/28 05:32:51;;;;;;;20.13;6.53;;;666.20;2432.00;;;;;;5068795;28;20016;-72
2023/08/28 05:35:17;;;;;;;16.15;5.75;;;666.30;2432.00;;;;;;5068203;28;20037;-71
2023/08/28 05:37:43;;;;;;;7.85;4.93;;;666.40;2432.00;;;;;;5064224;28;20485;-71
2023/08/28 05:40:09;;;;;;;18.85;6.40;;;666.50;2432.00;;;;;;5061906;28;20029;-72
2023/08/28 05:42:35;;;;;;;37.88;7.55;;;691.20;2406.40;;;;;;5065117;28;20024;-74
2023/08/28 05:45:00;;;;;;;20.15;6.47;;;691.30;2380.80;;;;;;5064039;28;20033;-72
2023/08/28 05:47:26;;;;;;;12.52;5.72;;;691.50;2304.00;;;;;;5068325;28;20025;-75
2023/08/28 05:49:52;;;;;;;15.52;5.10;;;691.60;2329.60;;;;;;5069506;28;20577;-71
2023/08/28 05:52:17;;;;;;;11.38;5.07;;;691.80;2252.80;;;;;;5062147;28;20020;-72
2023/08/28 05:54:43;;;;;;;10.80;4.88;;;691.90;2227.20;;;;;;5068529;28;20032;-71
2023/08/28 05:57:08;;;;;;;10.20;4.35;;;692.10;2201.60;;;;;;5070809;28;20028;-73
2023/08/28 05:59:34;;;;;;;14.65;5.75;;;716.80;2150.40;;;;;;5067238;28;20031;-71
2023/08/28 06:02:00;;;;;;;30.33;7.40;;;716.90;2124.80;;;;;;5072485;28;20032;-71
2023/08/28 06:04:27;;;;;;;10.65;5.30;;;717.10;2099.20;;;;;;5064521;28;20024;-72
2023/08/28 06:06:53;;;;;;;13.13;5.03;;;717.20;2073.60;;;;;;5066367;28;20487;-71
2023/08/28 06:09:19;;;;;;;8.38;4.15;;;717.30;2048.00;;;;;;5065901;28;20012;-72
2023/08/28 06:11:44;;;;;;;14.73;5.10;;;717.50;1996.80;;;;;;5067880;28;20087;-71
2023/08/28 06:14:10;;;;;;;11.55;4.72;;;717.60;1971.20;;;;;;5065242;28;20021;-72
2023/08/28 06:16:36;;;;;;;14.45;5.70;;;717.70;1945.60;;;;;;5064140;28;20023;-72
2023/08/28 06:19:03;;;;;;;13.63;5.00;;;717.70;1945.60;;;;;;5064654;28;20069;-71
2023/08/28 06:21:29;;;;;;;9.57;4.93;;;742.50;1920.00;;;;;;5072239;28;20025;-72
2023/08/28 06:23:55;;;;;;;12.93;5.07;;;742.60;1920.00;;;;;;5061713;28;20086;-73
2023/08/28 06:26:21;;;;;;;11.68;4.50;;;742.70;1868.80;;;;;;5062674;28;20082;-73
2023/08/28 06:28:46;;;;;;;12.93;4.70;;;742.90;1868.80;;;;;;5067872;28;20104;-74
2023/08/28 06:31:12;;;;;;;14.25;5.72;;;742.90;1817.60;;;;;;5071270;28;20051;-73
2023/08/28 06:33:38;;;;;;;9.43;4.82;;;743.00;1817.60;;;;;;5067706;28;20366;-73
2023/08/28 06:36:04;;;;;;;11.43;4.28;;;743.10;1766.40;;;;;;5059665;28;20044;-71
2023/08/28 06:38:29;;;;;;;16.08;5.40;;;743.10;1766.40;;;;;;5069704;28;20453;-72
2023/08/28 06:40:55;;;;;;;7.72;4.43;;;743.30;1766.40;;;;;;5068804;28;20025;-72
2023/08/28 06:43:21;;;;;;;15.18;4.88;;;768.00;1766.40;;;;;;5066315;28;20082;-71
2023/08/28 06:45:47;;;;;;;21.40;5.70;;;768.10;1740.80;;;;;;5070359;28;20114;-72
2023/08/28 06:48:12;;;;;;;16.85;5.03;;;768.20;1740.80;;;;;;5064992;28;20478;-72
2023/08/28 06:50:38;;;;;;;20.13;5.65;;;768.40;1715.20;;;;;;5068853;28;20025;-72
2023/08/28 06:53:04;;;;;;;10.93;5.32;;;768.60;1715.20;;;;;;5064381;28;20551;-71
2023/08/28 06:55:32;;;;;;;15.90;5.75;;;768.60;1664.00;;;;;;5071737;28;20362;-72
2023/08/28 06:57:58;;;;;;;8.30;4.70;;;768.80;1689.60;;;;;;5069813;28;20021;-73
2023/08/28 07:00:24;;;;;;;11.77;5.15;;;768.90;1664.00;;;;;;5065690;28;20384;-72
2023/08/28 07:02:50;;;;;;;10.98;4.78;;;793.60;1715.20;;;;;;5068945;28;20048;-73
2023/08/28 07:05:16;;;;;;;9.55;4.60;;;793.80;1638.40;;;;;;5071573;28;20064;-71
2023/08/28 07:07:42;;;;;;;21.75;6.15;;;794.00;1612.80;;;;;;5071898;28;20028;-74
2023/08/28 07:10:08;;;;;;;11.63;4.18;;;794.00;1587.20;;;;;;5070170;28;20017;-72
2023/08/28 07:12:33;;;;;;;12.23;4.57;;;794.20;1561.60;;;;;;5063726;28;20031;-71
2023/08/28 07:15:17;;;;;;;11.55;4.78;;;794.20;1587.20;;;;;;5063138;28;20021;-72
2023/08/28 07:17:43;;;;;;;11.27;4.38;;;794.50;1561.60;;;;;;5068114;28;20090;-73
2023/08/28 07:20:09;;;;;;;13.45;4.25;;;819.30;1536.00;;;;;;5066184;28;20504;-71
2023/08/28 07:22:35;;;;;;;12.20;4.93;;;819.30;1536.00;;;;;;5063098;28;20383;-73
2023/08/28 07:25:02;;;;;;;7.82;4.25;;;819.60;1536.00;;;;;;5070969;28;20024;-71
2023/08/28 07:27:28;;;;;;;15.73;5.18;;;819.70;1510.40;;;;;;5069236;28;20380;-73
2023/08/28 07:29:54;;;;;;;8.38;4.53;;;819.80;1484.80;;;;;;5065850;28;20016;-72
2023/08/28 07:32:19;;;;;;;13.23;4.68;;;819.90;1510.40;;;;;;5070873;28;20602;-73
2023/08/28 07:34:45;;;;;;;12.18;5.05;;;820.00;1510.40;;;;;;5064154;28;20686;-73
2023/08/28 07:37:11;;;;;;;14.20;5.70;;;844.80;1536.00;;;;;;5071943;28;20503;-72
2023/08/28 07:39:37;;;;;;;12.88;4.38;;;820.10;1459.20;;;;;;5066648;28;20496;-72
2023/08/28 07:42:03;;;;;;;14.88;4.78;;;844.90;1510.40;;;;;;5073645;28;20028;-73
2023/08/28 07:44:28;;;;;;;8.38;4.60;;;844.90;1484.80;;;;;;5070713;28;20040;-73
2023/08/28 07:46:54;;;;;;;13.45;4.60;;;845.20;1510.40;;;;;;5066359;28;20024;-73
2023/08/28 07:49:20;;;;;;;12.15;4.88;;;845.30;1459.20;;;;;;5069491;28;20024;-72
2023/08/28 07:51:46;;;;;;;11.25;4.60;;;845.50;1459.20;;;;;;5068850;28;20039;-73
2023/08/28 07:54:12;;;;;;;10.38;4.97;;;845.60;1459.20;;;;;;5068308;28;20021;-72
2023/08/28 07:56:38;;;;;;;9.07;4.05;;;845.70;1459.20;;;;;;5068221;28;20031;-72
2023/08/28 07:59:06;;;;;;;9.70;4.88;;;845.70;1433.60;;;;;;5065870;28;20060;-72
2023/08/28 08:01:32;;;;;;;10.23;4.00;;;870.40;1433.60;;;;;;5070344;28;20031;-72
2023/08/28 08:03:58;;;;;;;14.60;4.75;;;870.40;1382.40;;;;;;5065340;28;20105;-73
2023/08/28 08:06:24;;;;;;;12.95;4.65;;;870.50;1408.00;;;;;;5064287;28;20025;-74
2023/08/28 08:08:49;;;;;;;11.90;5.00;;;870.60;1382.40;;;;;;5071844;28;20032;-73
2023/08/28 08:11:15;;;;;;;17.65;4.50;;;870.70;1382.40;;;;;;5072342;28;20384;-73
2023/08/28 08:13:41;;;;;;;13.52;4.43;;;870.50;1382.40;;;;;;5071774;28;20025;-74
2023/08/28 08:16:07;;;;;;;16.50;4.85;;;870.80;1356.80;;;;;;5063910;28;20473;-73
2023/08/28 08:18:33;;;;;;;6.00;4.18;;;870.80;1356.80;;;;;;5069284;28;20051;-72
2023/08/28 08:20:58;;;;;;;10.70;5.00;;;870.80;1356.80;;;;;;5069875;28;20081;-73
2023/08/28 08:23:26;;;;;;;11.00;4.95;;;870.90;1356.80;;;;;;5075356;28;20021;-73
2023/08/28 08:25:54;;;;;;;13.38;4.88;;;871.00;1331.20;;;;;;5064640;28;20028;-73
2023/08/28 08:28:20;;;;;;;10.40;4.97;;;871.10;1331.20;;;;;;5070749;28;20480;-75
2023/08/28 08:30:46;;;;;;;11.25;4.70;;;871.10;1331.20;;;;;;5064760;28;20086;-73
2023/08/28 08:33:12;;;;;;;9.88;3.90;;;871.10;1331.20;;;;;;5069790;28;20404;-74
2023/08/28 08:35:38;;;;;;;14.52;4.85;;;871.10;1331.20;;;;;;5069469;28;20461;-74
2023/08/28 08:38:04;;;;;;;27.38;5.78;;;896.00;1356.80;;;;;;5072537;28;20085;-74
2023/08/28 08:40:32;;;;;;;6.78;4.68;;;896.10;1305.60;;;;;;5072768;28;20030;-72
2023/08/28 08:42:57;;;;;;;10.30;4.47;;;871.30;1305.60;;;;;;5069922;28;20133;-74
2023/08/28 08:45:30;;;;;;;14.82;5.10;;;896.20;1305.60;;;;;;5068236;28;20040;-73
2023/08/28 08:47:59;;;;;;;15.20;5.32;;;896.50;1305.60;;;;;;5073707;28;20064;-72
2023/08/28 08:50:27;;;;;;;10.52;4.55;;;896.80;1305.60;;;;;;5068884;28;20133;-72
2023/08/28 08:52:58;;;;;;;15.50;4.40;;;896.80;1228.80;;;;;;5070287;28;20025;-72
2023/08/28 08:55:47;;;;;;;13.55;4.10;;;896.60;1228.80;;;;;;5066427;28;20514;-73
2023/08/28 08:58:15;;;;;;;8.05;4.15;;;896.60;1228.80;;;;;;5061231;28;20123;-73
2023/08/28 09:00:43;;;;;;;13.13;4.97;;;896.60;1203.20;;;;;;5062950;28;20012;-78
2023/08/28 09:03:09;;;;;;;12.82;4.35;;;896.90;1228.80;;;;;;5063088;28;20523;-74
2023/08/28 09:05:36;;;;;;;10.68;4.10;;;896.90;1203.20;;;;;;5069925;28;20043;-73
2023/08/28 09:08:05;;;;;;;9.93;5.03;;;896.90;1203.20;;;;;;5063889;28;20079;-72
2023/08/28 09:10:31;;;;;;;12.82;4.68;;;922.00;1228.80;;;;;;5070896;28;20389;-72
2023/08/28 09:12:57;;;;;;;11.82;3.90;;;921.70;1203.20;;;;;;5069152;28;20025;-73
2023/08/28 09:15:24;;;;;;;11.02;4.60;;;921.80;1203.20;;;;;;5069055;28;20025;-72
2023/08/28 09:17:51;;;;;;;16.77;4.45;;;921.60;1203.20;;;;;;5065155;28;20035;-73
2023/08/28 09:20:18;;;;;;;13.65;5.20;;;921.60;1203.20;;;;;;5068114;28;20496;-72
2023/08/28 09:22:53;;;;;;;11.70;4.68;;;921.60;1203.20;;;;;;5070443;28;20066;-71
2023/08/28 09:25:20;;;;;;;9.15;4.20;;;922.00;1203.20;;;;;;5071093;28;20032;-73
2023/08/28 09:27:48;;;;;;;9.35;4.82;;;922.10;1177.60;;;;;;5062787;28;20033;-73
2023/08/28 09:30:27;;;;;;;8.88;5.00;;;922.20;1177.60;;;;;;5066120;28;20432;-73
2023/08/28 09:32:53;;;;;;;12.82;5.20;;;922.00;1203.20;;;;;;5059912;28;20033;-73
2023/08/28 09:35:20;;;;;;;10.73;3.95;;;922.00;1203.20;;;;;;5070530;28;20135;-72
2023/08/28 09:37:59;;;;;;;10.45;4.43;;;922.10;1203.20;;;;;;5069192;28;20173;-72
2023/08/28 09:40:30;;;;;;;8.48;4.97;;;922.50;1203.20;;;;;;5064262;28;20027;-73
2023/08/28 09:42:57;;;;;;;12.77;4.40;;;922.40;1177.60;;;;;;5071169;28;20032;-73
2023/08/28 09:45:22;;;;;;;10.82;4.68;;;947.20;1203.20;;;;;;5060864;28;20033;-72
2023/08/28 09:47:54;;;;;;;15.00;4.82;;;947.30;1203.20;;;;;;5068127;28;20388;-73
2023/08/28 09:50:30;;;;;;;17.33;5.55;;;922.50;1203.20;;;;;;5066734;28;20032;-73
2023/08/28 09:53:12;;;;;;;12.23;5.32;;;947.40;1203.20;;;;;;5069010;28;20028;-73
2023/08/28 09:55:44;;;;;;;7.53;4.75;;;947.40;1203.20;;;;;;5063483;28;20107;-77
2023/08/28 09:58:11;;;;;;;10.38;4.43;;;947.20;1177.60;;;;;;5068542;28;20477;-73
2023/08/28 10:00:42;;;;;;;9.23;4.82;;;947.30;1177.60;;;;;;5071639;28;20032;-74
2023/08/28 10:03:10;;;;;;;14.60;4.78;;;947.30;1152.00;;;;;;5066811;28;20025;-72
2023/08/28 10:05:37;;;;;;;10.23;4.53;;;947.20;1177.60;;;;;;5072350;28;20043;-76
2023/08/28 10:08:07;;;;;;;18.48;5.25;;;947.40;1177.60;;;;;;5066908;28;20020;-72
2023/08/28 10:10:36;;;;;;;15.95;5.03;;;947.70;1177.60;;;;;;5065792;28;20526;-72
2023/08/28 10:13:06;;;;;;;9.00;4.63;;;947.80;1152.00;;;;;;5068438;28;20050;-72
2023/08/28 10:15:33;;;;;;;12.02;5.28;;;947.50;1152.00;;;;;;5068236;28;20029;-72
2023/08/28 10:18:04;;;;;;;8.18;4.45;;;947.70;1152.00;;;;;;5067638;28;20103;-73
2023/08/28 10:20:31;;;;;;;7.97;4.07;;;947.90;1152.00;;;;;;5064023;28;20044;-72
2023/08/28 10:22:59;;;;;;;8.50;4.63;;;948.10;1152.00;;;;;;5072803;28;20013;-72
2023/08/28 10:25:27;;;;;;;14.45;6.03;;;972.90;1177.60;;;;;;5072253;28;20039;-72
2023/08/28 10:27:54;;;;;;;11.20;4.65;;;948.00;1152.00;;;;;;5067939;28;20095;-72
2023/08/28 10:30:21;;;;;;;8.32;4.70;;;947.90;1152.00;;;;;;5063908;28;20055;-75
2023/08/28 10:32:49;;;;;;;8.85;5.05;;;948.00;1152.00;;;;;;5067135;28;20025;-74
2023/08/28 10:35:17;;;;;;;19.83;5.82;;;948.10;1126.40;;;;;;5084475;28;20024;-75
2023/08/28 10:37:43;;;;;;;12.45;4.57;;;948.10;1152.00;;;;;;5067096;28;20049;-74
2023/08/28 10:40:11;;;;;;;8.80;5.35;;;948.10;1126.40;;;;;;5067808;28;20409;-72
2023/08/28 10:42:38;;;;;;;10.13;4.95;;;948.10;1152.00;;;;;;5068698;28;20052;-72
2023/08/28 10:45:05;;;;;;;13.32;4.55;;;948.10;1152.00;;;;;;5063678;28;20032;-75
2023/08/28 10:47:30;;;;;;;12.98;5.05;;;948.10;1152.00;;;;;;5065297;28;20042;-72
2023/08/28 10:49:56;;;;;;;18.45;5.65;;;948.10;1152.00;;;;;;5063231;28;20039;-73
2023/08/28 10:52:23;;;;;;;11.35;5.13;;;973.00;1177.60;;;;;;5054204;28;20018;-72
2023/08/28 10:54:50;;;;;;;17.58;5.25;;;973.10;1177.60;;;;;;5072089;28;20033;-75
2023/08/28 10:57:27;;;;;;;10.10;4.30;;;973.30;1177.60;;;;;;5067424;28;20119;-72
2023/08/28 10:59:54;;;;;;;13.35;5.20;;;973.10;1177.60;;;;;;5064812;28;20025;-71
2023/08/28 11:02:22;;;;;;;10.02;4.85;;;973.30;1177.60;;;;;;5073623;28;20017;-73
2023/08/28 11:04:48;;;;;;;7.10;4.72;;;973.20;1152.00;;;;;;5065520;28;20158;-71
2023/08/28 11:07:22;;;;;;;10.13;5.40;;;973.30;1177.60;;;;;;5071629;28;20442;-72
2023/08/28 11:10:16;;;;;;;9.60;5.50;;;973.20;1152.00;;;;;;5067356;28;20065;-73
2023/08/28 11:12:50;;;;;;;11.55;5.00;;;973.50;1152.00;;;;;;5069302;28;20362;-73
2023/08/28 11:15:25;;;;;;;9.02;5.78;;;973.50;1177.60;;;;;;5072353;28;20122;-73
2023/08/28 11:18:30;;;;;;;7.65;4.30;;;998.40;1177.60;;;;;;5067781;28;20032;-74
2023/08/28 11:20:57;;;;;;;10.02;4.28;;;973.70;1152.00;;;;;;5070674;28;20089;-75
2023/08/28 11:23:34;;;;;;;17.92;6.97;;;998.70;1126.40;;;;;;5065992;28;20025;-73
2023/08/28 11:26:03;;;;;;;15.30;5.07;;;998.80;1126.40;;;;;;5068482;28;20033;-73
2023/08/28 11:28:32;;;;;;;13.07;4.30;;;999.10;1100.80;;;;;;5071117;28;20044;-73
2023/08/28 11:31:03;;;;;;;13.43;5.35;;;1024.30;1100.80;;;;;;5075326;28;20074;-73
2023/08/28 11:33:36;;;;;;;8.90;5.07;;;1024.10;1100.80;;;;;;5071493;28;20134;-73
2023/08/28 11:36:03;;;;;;;8.88;5.07;;;1024.20;1100.80;;;;;;5067796;28;20024;-76
2023/08/28 11:38:29;;;;;;;15.00;4.85;;;998.90;1100.80;;;;;;5066337;28;20029;-78
2023/08/28 11:41:04;;;;;;;10.38;4.57;;;1024.10;1100.80;;;;;;5072509;28;20035;-75
2023/08/28 11:43:37;;;;;;;14.02;6.10;;;1024.00;1100.80;;;;;;5074216;28;20033;-73
2023/08/28 11:46:03;;;;;;;6.22;4.10;;;999.00;1100.80;;;;;;5068224;28;20489;-75
2023/08/28 11:48:37;;;;;;;10.75;4.80;;;1024.10;1100.80;;;;;;5068452;28;20025;-73
2023/08/28 11:51:04;;;;;;;11.80;4.22;;;1024.20;1100.80;;;;;;5067025;28;20028;-74
2023/08/28 11:53:40;;;;;;;9.93;4.85;;;1024.00;1075.20;;;;;;5061848;28;20028;-73
2023/08/28 11:56:06;;;;;;;6.53;4.82;;;1024.20;1075.20;;;;;;5062557;28;20077;-73
2023/08/28 11:58:34;;;;;;;7.97;4.43;;;1024.10;1075.20;;;;;;5070304;28;20021;-74
2023/08/28 12:01:01;;;;;;;8.82;4.80;;;1024.10;1075.20;;;;;;5075050;28;20036;-73
2023/08/28 12:03:31;;;;;;;11.65;5.10;;;1024.70;1049.60;;;;;;5069240;28;20104;-73
2023/08/28 12:06:07;;;;;;;10.02;4.45;;;1024.20;1100.80;;;;;;5072916;28;20396;-75
2023/08/28 12:08:41;;;;;;;7.95;4.70;;;1049.60;1100.80;;;;;;5072499;28;20480;-73
2023/08/28 12:11:14;;;;;;;12.47;5.27;;;1049.60;1075.20;;;;;;5066870;28;20115;-73